Time;durP1;ratioP1;P1;durP2;ratioP2;P2;SDS_P1;SDS_P2;PMS_P1;PMS_P2;Temp;Humidity;BMP_temperature;BMP_pressure;BME280_temperature;BME280_humidity;BME280_pressure;Samples;Min_cycle;Max_cycle;Signal;HPM_P1;HPM_P2
2021/01/22 00:01:39;;;;;;;5.87;3.33;;;8.80;99.90;;;;;;4964709;29;20552;-51
2021/01/22 00:04:06;;;;;;;3.63;2.90;;;8.80;99.90;;;;;;4964517;29;20915;-53
2021/01/22 00:06:35;;;;;;;5.80;3.50;;;8.80;99.90;;;;;;4964752;29;20479;-51
2021/01/22 00:09:03;;;;;;;3.30;2.43;;;8.80;99.90;;;;;;4960518;29;20476;-53
2021/01/22 00:11:32;;;;;;;7.33;3.00;;;8.80;99.90;;;;;;4965725;29;20578;-49
2021/01/22 00:13:58;;;;;;;4.47;3.77;;;8.70;99.90;;;;;;4964523;29;20520;-48
2021/01/22 00:16:25;;;;;;;5.10;3.57;;;8.70;99.90;;;;;;4951385;29;20491;-52
2021/01/22 00:18:51;;;;;;;4.67;3.43;;;8.70;99.90;;;;;;4954181;29;20970;-53
2021/01/22 00:21:18;;;;;;;7.33;4.30;;;8.70;99.90;;;;;;4954638;29;20483;-50
2021/01/22 00:23:44;;;;;;;4.97;3.93;;;8.70;99.90;;;;;;4953516;29;20547;-53
2021/01/22 00:26:11;;;;;;;4.93;3.50;;;8.60;99.90;;;;;;4953564;29;21000;-51
2021/01/22 00:28:37;;;;;;;9.40;4.13;;;8.60;99.90;;;;;;4954129;29;20527;-51
2021/01/22 00:31:04;;;;;;;9.20;4.20;;;8.60;99.90;;;;;;4954431;29;20997;-51
2021/01/22 00:33:30;;;;;;;6.30;3.90;;;8.60;99.90;;;;;;4953592;29;20475;-48
2021/01/22 00:35:57;;;;;;;6.80;4.00;;;8.60;99.90;;;;;;4954219;29;20935;-46
2021/01/22 00:38:23;;;;;;;7.00;4.27;;;8.60;99.90;;;;;;4954314;29;20523;-46
2021/01/22 00:40:50;;;;;;;6.00;4.40;;;8.70;99.90;;;;;;4954158;29;20498;-49
2021/01/22 00:43:17;;;;;;;6.60;3.97;;;8.70;99.90;;;;;;4954198;29;20467;-52
2021/01/22 00:45:44;;;;;;;5.90;3.67;;;8.70;99.90;;;;;;4952923;29;20486;-56
2021/01/22 00:48:10;;;;;;;5.30;3.57;;;8.70;99.90;;;;;;4953466;29;20459;-51
2021/01/22 00:50:37;;;;;;;6.60;4.13;;;8.80;99.90;;;;;;4960101;29;20519;-46
2021/01/22 00:53:03;;;;;;;4.60;3.50;;;8.90;99.90;;;;;;4956340;29;20558;-51
2021/01/22 00:55:30;;;;;;;5.73;3.07;;;8.90;99.90;;;;;;4954143;29;20538;-50
2021/01/22 00:57:56;;;;;;;4.97;3.67;;;9.00;99.90;;;;;;4954813;29;20543;-46
2021/01/22 01:00:26;;;;;;;5.20;3.17;;;9.00;99.90;;;;;;4955176;29;20861;-47
2021/01/22 01:02:52;;;;;;;6.53;3.47;;;9.10;99.90;;;;;;4954996;29;20938;-48
2021/01/22 01:05:19;;;;;;;3.73;3.20;;;9.10;99.90;;;;;;4955344;28;20473;-49
2021/01/22 01:07:45;;;;;;;3.90;2.53;;;9.20;99.90;;;;;;4958610;29;20625;-52
2021/01/22 01:10:12;;;;;;;4.00;2.80;;;9.30;99.90;;;;;;4958325;29;20448;-50
2021/01/22 01:12:39;;;;;;;3.50;2.20;;;9.40;99.90;;;;;;4958371;29;20966;-52
2021/01/22 01:15:06;;;;;;;5.07;2.33;;;9.50;99.90;;;;;;4957835;29;20518;-46
2021/01/22 01:17:34;;;;;;;4.80;2.40;;;9.60;99.90;;;;;;4954463;29;20588;-47
2021/01/22 01:20:02;;;;;;;2.53;2.33;;;9.70;99.90;;;;;;4958672;29;20841;-50
2021/01/22 01:22:28;;;;;;;2.37;2.03;;;9.80;99.90;;;;;;4947254;29;20456;-50
2021/01/22 01:24:55;;;;;;;1.80;1.60;;;9.90;99.90;;;;;;4939099;29;20586;-52
2021/01/22 04:50:45;;;;;;;4.00;1.00;;;11.20;99.90;;;;;;6019539;23;21637;-51
2021/01/22 04:53:12;;;;;;;1.73;1.03;;;11.10;99.90;;;;;;4946575;28;20519;-45
2021/01/22 04:55:43;;;;;;;1.10;0.97;;;11.10;99.90;;;;;;4940094;29;20535;-45
2021/01/22 04:58:12;;;;;;;1.30;1.10;;;11.10;99.90;;;;;;4939914;29;20792;-48
2021/01/22 05:00:39;;;;;;;1.50;0.90;;;11.10;99.90;;;;;;4939763;29;20488;-50
2021/01/22 05:03:06;;;;;;;1.20;0.83;;;11.10;99.90;;;;;;4939235;29;20568;-48
2021/01/22 05:05:33;;;;;;;1.20;1.00;;;11.00;99.90;;;;;;4939700;29;20571;-50
2021/01/22 05:08:02;;;;;;;1.17;1.00;;;11.00;99.90;;;;;;4939783;29;20559;-48
2021/01/22 05:10:29;;;;;;;1.27;0.80;;;11.00;99.90;;;;;;4939661;29;20457;-58
2021/01/22 05:12:55;;;;;;;1.27;0.90;;;11.00;99.90;;;;;;4939616;29;20543;-50
2021/01/22 05:15:24;;;;;;;2.23;1.27;;;10.90;99.90;;;;;;4939332;29;20532;-53
2021/01/22 05:17:59;;;;;;;1.73;1.07;;;10.90;99.90;;;;;;4939567;29;20468;-51
2021/01/22 05:20:33;;;;;;;1.30;0.90;;;10.90;99.90;;;;;;4939578;29;20970;-50
2021/01/22 05:23:01;;;;;;;1.77;1.57;;;10.90;99.90;;;;;;4939504;29;20790;-51
2021/01/22 05:25:28;;;;;;;1.50;1.00;;;10.90;99.90;;;;;;4939271;29;20555;-47
2021/01/22 05:27:56;;;;;;;1.70;1.17;;;10.90;99.90;;;;;;4939158;29;20455;-51
2021/01/22 05:30:24;;;;;;;2.00;1.00;;;10.90;99.90;;;;;;4939088;29;20539;-50
2021/01/22 05:32:50;;;;;;;1.20;1.00;;;10.90;99.90;;;;;;4938862;29;20475;-51
2021/01/22 05:35:31;;;;;;;1.30;1.00;;;10.80;99.90;;;;;;4939269;29;20907;-48
2021/01/22 05:37:58;;;;;;;1.93;1.10;;;10.80;99.90;;;;;;4939209;29;20798;-51
2021/01/22 05:40:26;;;;;;;1.20;1.10;;;10.80;99.90;;;;;;4938951;29;20478;-53
2021/01/22 05:42:54;;;;;;;1.00;0.80;;;10.80;99.90;;;;;;4938806;29;20560;-53
2021/01/22 05:45:37;;;;;;;2.45;0.90;;;10.80;99.90;;;;;;4938684;29;20481;-47
2021/01/22 05:48:04;;;;;;;1.27;0.80;;;10.80;99.90;;;;;;4938984;29;20433;-53
2021/01/22 05:50:44;;;;;;;1.47;0.90;;;10.80;99.90;;;;;;4938629;29;20548;-47
2021/01/22 05:53:15;;;;;;;1.80;1.13;;;10.80;99.90;;;;;;4938097;29;20499;-52
2021/01/22 05:55:43;;;;;;;1.60;1.20;;;10.80;99.90;;;;;;4938700;29;20463;-48
2021/01/22 05:58:10;;;;;;;4.50;1.43;;;10.80;99.90;;;;;;4938717;29;20543;-51
2021/01/22 06:00:36;;;;;;;1.60;1.00;;;10.70;99.90;;;;;;4938426;29;20991;-45
2021/01/22 06:03:21;;;;;;;3.23;1.20;;;10.70;99.90;;;;;;4938495;29;20452;-46
2021/01/22 06:05:53;;;;;;;1.20;0.93;;;10.70;99.90;;;;;;4938422;29;20793;-47
2021/01/22 06:08:19;;;;;;;1.50;1.10;;;10.60;99.90;;;;;;4938573;29;20460;-49
2021/01/22 06:10:47;;;;;;;2.83;1.60;;;10.70;99.90;;;;;;4938764;29;20476;-52
2021/01/22 06:13:16;;;;;;;1.50;1.20;;;10.70;99.90;;;;;;4938350;29;20448;-47
2021/01/22 06:15:43;;;;;;;1.60;1.17;;;10.70;99.90;;;;;;4938282;29;20457;-50
2021/01/22 06:18:15;;;;;;;2.27;1.50;;;10.70;99.90;;;;;;4938169;29;20557;-48
2021/01/22 06:20:42;;;;;;;1.53;1.20;;;10.70;99.90;;;;;;4938561;29;20821;-46
2021/01/22 06:23:13;;;;;;;1.67;1.00;;;10.70;99.90;;;;;;4938491;29;20456;-46
2021/01/22 06:25:40;;;;;;;1.50;1.30;;;10.70;99.90;;;;;;4938112;29;21031;-49
2021/01/22 06:28:10;;;;;;;3.03;1.20;;;10.70;99.90;;;;;;4938029;29;20536;-51
2021/01/22 06:30:37;;;;;;;2.50;1.33;;;10.70;99.90;;;;;;4938025;29;20920;-48
2021/01/22 06:33:05;;;;;;;1.47;0.90;;;10.70;99.90;;;;;;4937891;29;20559;-48
2021/01/22 06:35:34;;;;;;;4.20;2.20;;;10.70;99.90;;;;;;4937843;29;20495;-46
2021/01/22 06:38:02;;;;;;;1.00;0.90;;;10.60;99.90;;;;;;4938093;29;20539;-49
2021/01/22 06:40:29;;;;;;;1.30;1.17;;;10.70;99.90;;;;;;4938160;29;20483;-45
2021/01/22 06:42:56;;;;;;;1.53;1.27;;;10.70;99.90;;;;;;4937647;29;20959;-52
2021/01/22 06:45:25;;;;;;;2.10;1.17;;;10.70;99.90;;;;;;4946876;28;21043;-46
2021/01/22 06:47:59;;;;;;;1.50;1.10;;;10.60;99.90;;;;;;4956816;29;20451;-51
2021/01/22 06:50:25;;;;;;;1.90;1.23;;;10.70;99.90;;;;;;4956985;29;20531;-51
2021/01/22 06:53:07;;;;;;;1.33;0.90;;;10.70;99.90;;;;;;4956569;29;20633;-46
2021/01/22 06:55:34;;;;;;;2.20;1.10;;;10.70;99.90;;;;;;4958267;29;20540;-47
2021/01/22 06:58:25;;;;;;;2.30;0.93;;;10.70;99.90;;;;;;4959957;29;20483;-49
2021/01/22 07:00:53;;;;;;;1.50;1.23;;;10.70;99.90;;;;;;4960320;29;20428;-48
2021/01/22 07:03:49;;;;;;;3.67;1.83;;;10.70;99.90;;;;;;4956969;28;20458;-45
2021/01/22 07:06:51;;;;;;;2.60;1.37;;;10.70;99.90;;;;;;4954118;29;20606;-49
2021/01/22 07:09:49;;;;;;;5.00;1.40;;;10.70;99.90;;;;;;4959988;29;20554;-47
2021/01/22 07:12:17;;;;;;;4.00;1.37;;;10.70;99.90;;;;;;4959849;29;20870;-48
2021/01/22 07:14:44;;;;;;;2.27;1.47;;;10.80;99.90;;;;;;4960587;29;20586;-49
2021/01/22 07:17:17;;;;;;;1.53;1.43;;;10.80;99.90;;;;;;4961680;29;20543;-46
2021/01/22 07:19:54;;;;;;;1.30;0.90;;;10.90;99.90;;;;;;4960051;29;20472;-44
2021/01/22 07:22:21;;;;;;;3.33;1.80;;;11.00;99.90;;;;;;4960274;29;20879;-46
2021/01/22 07:24:52;;;;;;;2.57;1.10;;;11.10;99.90;;;;;;4963729;29;20458;-47
2021/01/22 07:27:19;;;;;;;2.20;1.20;;;11.10;99.90;;;;;;4960823;29;20551;-52
2021/01/22 07:30:09;;;;;;;1.57;1.27;;;11.10;99.90;;;;;;4959969;29;20926;-47
2021/01/22 07:32:37;;;;;;;3.80;1.00;;;11.20;99.90;;;;;;4960307;29;20448;-46
2021/01/22 07:35:05;;;;;;;3.27;1.43;;;11.20;99.90;;;;;;4960221;29;20448;-51
2021/01/22 07:37:37;;;;;;;4.80;1.57;;;11.30;99.90;;;;;;4959662;29;20486;-46
2021/01/22 07:40:07;;;;;;;2.30;1.70;;;11.30;99.90;;;;;;4959524;29;20447;-49
2021/01/22 07:42:33;;;;;;;2.83;2.00;;;11.30;99.90;;;;;;4959969;29;20475;-48
2021/01/22 07:45:09;;;;;;;2.57;1.40;;;11.30;99.90;;;;;;4959978;29;21033;-48
2021/01/22 07:47:38;;;;;;;3.50;1.70;;;11.30;99.90;;;;;;4959978;29;20504;-46
2021/01/22 07:50:06;;;;;;;2.57;1.60;;;11.30;99.90;;;;;;4959974;29;20514;-50
2021/01/22 07:52:41;;;;;;;1.13;0.90;;;11.40;99.90;;;;;;5046069;23;20487;-46
2021/01/22 07:55:18;;;;;;;2.57;1.70;;;11.40;99.90;;;;;;5107070;23;20540;-45
2021/01/22 07:57:45;;;;;;;2.37;1.70;;;11.50;99.90;;;;;;4940035;29;20574;-48
2021/01/22 08:00:13;;;;;;;2.50;2.30;;;11.50;99.90;;;;;;4959080;29;20448;-47
2021/01/22 08:02:55;;;;;;;2.67;1.90;;;11.60;99.90;;;;;;4959170;29;20444;-51
2021/01/22 08:05:30;;;;;;;2.00;1.00;;;11.60;99.90;;;;;;4955938;29;20467;-52
2021/01/22 08:07:56;;;;;;;2.03;1.10;;;11.60;99.90;;;;;;4944269;29;20455;-47
2021/01/22 08:10:27;;;;;;;2.97;1.23;;;11.60;99.90;;;;;;4944067;29;20476;-47
2021/01/22 08:12:59;;;;;;;2.27;1.63;;;11.60;99.90;;;;;;4944460;29;20571;-51
2021/01/22 08:15:26;;;;;;;2.53;1.37;;;11.60;99.90;;;;;;4943392;29;20461;-51
2021/01/22 08:17:54;;;;;;;2.60;1.50;;;11.60;99.90;;;;;;4944163;29;20571;-48
2021/01/22 08:20:22;;;;;;;2.43;2.07;;;11.60;99.90;;;;;;4944284;29;20492;-52
2021/01/22 08:22:52;;;;;;;3.40;1.80;;;11.70;99.90;;;;;;4944476;29;20464;-52
2021/01/22 08:25:28;;;;;;;2.30;1.90;;;11.70;99.90;;;;;;4943804;29;20452;-49
2021/01/22 08:27:55;;;;;;;2.13;1.07;;;11.70;99.90;;;;;;4943427;29;20768;-53
2021/01/22 08:30:23;;;;;;;2.13;1.43;;;11.70;99.90;;;;;;4944018;29;20515;-51
2021/01/22 08:32:50;;;;;;;2.17;1.77;;;11.70;99.90;;;;;;4943939;29;20855;-53
2021/01/22 08:35:17;;;;;;;3.47;1.90;;;11.80;99.90;;;;;;4943867;29;20460;-53
2021/01/22 08:37:45;;;;;;;4.53;3.33;;;11.80;99.90;;;;;;4944100;29;20480;-47
2021/01/22 08:40:13;;;;;;;2.80;1.77;;;11.80;99.90;;;;;;4943290;29;20445;-48
2021/01/22 08:42:39;;;;;;;2.57;1.93;;;11.90;99.90;;;;;;4942979;29;20495;-48
2021/01/22 08:45:07;;;;;;;2.97;1.47;;;11.90;99.90;;;;;;4943110;29;20492;-51
2021/01/22 08:47:41;;;;;;;4.40;2.60;;;11.90;99.90;;;;;;4944010;29;20587;-51
2021/01/22 08:50:09;;;;;;;2.30;1.40;;;11.90;99.90;;;;;;4943610;29;20563;-48
2021/01/22 08:52:36;;;;;;;2.10;1.37;;;11.80;99.90;;;;;;4944155;29;20488;-50
2021/01/22 08:55:03;;;;;;;1.00;0.60;;;11.80;99.90;;;;;;4947008;29;20544;-52
2021/01/22 08:57:30;;;;;;;1.10;0.80;;;11.30;99.90;;;;;;4948888;29;20480;-46
2021/01/22 08:59:57;;;;;;;1.20;0.80;;;10.70;99.90;;;;;;4950895;29;20938;-47
2021/01/22 09:02:38;;;;;;;4.27;1.20;;;10.10;99.90;;;;;;4951875;29;20472;-51
2021/01/22 09:05:07;;;;;;;1.30;1.07;;;9.70;99.90;;;;;;4950733;29;20990;-48
2021/01/22 09:07:34;;;;;;;1.67;0.87;;;9.50;99.90;;;;;;4936729;29;20464;-51
2021/01/22 09:10:01;;;;;;;1.17;0.87;;;9.30;99.90;;;;;;4937089;29;20517;-50
2021/01/22 09:12:30;;;;;;;1.73;0.90;;;9.10;99.90;;;;;;4936700;29;20464;-47
2021/01/22 09:15:00;;;;;;;1.20;0.80;;;9.00;99.90;;;;;;4936572;29;20465;-47
2021/01/22 09:17:35;;;;;;;7.63;1.80;;;9.00;99.90;;;;;;4936488;29;20506;-51
2021/01/22 09:20:06;;;;;;;1.63;0.87;;;9.00;99.90;;;;;;4936393;29;20531;-51
2021/01/22 09:22:34;;;;;;;1.70;1.13;;;8.90;99.90;;;;;;4936141;29;20468;-51
2021/01/22 09:25:03;;;;;;;0.90;0.63;;;9.00;99.90;;;;;;4939833;29;20445;-52
2021/01/22 09:27:30;;;;;;;1.50;0.90;;;8.90;99.90;;;;;;4948334;29;20536;-51
2021/01/22 09:29:56;;;;;;;2.17;1.00;;;8.90;99.90;;;;;;4947016;29;20460;-54
2021/01/22 09:32:23;;;;;;;2.60;1.60;;;8.80;99.90;;;;;;4970690;29;20471;-52
2021/01/22 09:34:49;;;;;;;2.40;1.23;;;8.90;99.90;;;;;;4969561;29;20527;-53
2021/01/22 09:37:16;;;;;;;5.70;1.17;;;8.80;99.90;;;;;;4973718;29;20490;-48
2021/01/22 09:39:42;;;;;;;2.60;2.17;;;8.80;99.90;;;;;;4959041;29;20445;-49
2021/01/22 09:42:10;;;;;;;1.47;0.97;;;8.70;99.90;;;;;;4959258;29;20460;-49
2021/01/22 09:44:36;;;;;;;1.87;0.97;;;8.90;99.90;;;;;;4969503;29;20448;-51
2021/01/22 09:47:03;;;;;;;1.00;0.67;;;9.00;99.90;;;;;;4971823;29;20503;-45
2021/01/22 09:49:31;;;;;;;2.57;0.80;;;9.10;99.90;;;;;;4976798;29;20479;-45
2021/01/22 09:51:58;;;;;;;4.33;0.90;;;9.10;99.90;;;;;;4973700;29;20535;-46
2021/01/22 09:54:24;;;;;;;1.50;0.90;;;9.10;99.90;;;;;;4974200;29;20479;-47
2021/01/22 09:56:51;;;;;;;0.97;0.63;;;9.10;99.90;;;;;;4978485;29;20483;-49
2021/01/22 09:59:19;;;;;;;1.80;0.90;;;9.20;99.90;;;;;;4973112;29;20479;-52
2021/01/22 10:01:45;;;;;;;1.10;0.80;;;9.10;99.90;;;;;;4976642;29;20493;-47
2021/01/22 10:04:12;;;;;;;0.90;0.70;;;9.10;99.90;;;;;;4978321;29;20459;-53
2021/01/22 10:06:38;;;;;;;1.20;0.80;;;9.10;99.90;;;;;;4977558;29;20428;-49
2021/01/22 10:09:09;;;;;;;1.30;0.80;;;9.20;99.90;;;;;;4977736;29;20439;-49
2021/01/22 10:11:36;;;;;;;1.10;0.80;;;9.20;99.90;;;;;;4977200;29;20432;-54
2021/01/22 10:14:03;;;;;;;1.43;0.73;;;9.20;99.90;;;;;;4976406;29;20447;-54
2021/01/22 10:16:30;;;;;;;1.00;0.60;;;9.30;99.90;;;;;;4976273;29;20808;-51
2021/01/22 10:18:57;;;;;;;1.90;0.80;;;9.30;99.90;;;;;;4977439;29;20447;-50
2021/01/22 10:21:24;;;;;;;1.10;0.70;;;9.20;99.90;;;;;;4977113;29;20475;-50
2021/01/22 10:23:54;;;;;;;3.30;0.70;;;9.20;99.90;;;;;;4976633;29;20467;-48
2021/01/22 10:26:24;;;;;;;1.40;0.80;;;9.20;99.90;;;;;;4974999;29;20498;-52
2021/01/22 10:28:54;;;;;;;1.73;0.87;;;9.20;99.90;;;;;;4966933;29;20448;-50
2021/01/22 10:31:22;;;;;;;1.23;0.70;;;9.20;99.90;;;;;;4971121;29;20448;-47
2021/01/22 10:33:49;;;;;;;0.90;0.50;;;9.10;99.90;;;;;;4964471;29;20546;-54
2021/01/22 10:36:16;;;;;;;0.90;0.60;;;9.10;99.90;;;;;;4963599;29;20511;-53
2021/01/22 10:38:43;;;;;;;2.10;0.80;;;9.00;99.90;;;;;;4962929;28;20523;-53
2021/01/22 10:41:10;;;;;;;1.13;0.73;;;8.90;99.90;;;;;;4959260;29;20456;-55
2021/01/22 10:43:37;;;;;;;1.50;0.60;;;8.90;99.90;;;;;;4961747;29;20484;-53
2021/01/22 10:46:04;;;;;;;1.63;0.90;;;8.80;99.90;;;;;;4954388;29;20451;-52
2021/01/22 10:48:30;;;;;;;2.17;1.20;;;8.80;99.90;;;;;;4968340;29;20456;-54
2021/01/22 10:50:58;;;;;;;1.00;0.80;;;8.70;99.90;;;;;;4957229;29;20527;-54
2021/01/22 10:53:24;;;;;;;1.00;0.80;;;8.80;99.90;;;;;;4959787;29;20470;-55
2021/01/22 10:55:51;;;;;;;3.10;1.10;;;8.80;99.90;;;;;;4958886;29;20475;-50
2021/01/22 10:58:18;;;;;;;1.00;0.80;;;8.90;99.90;;;;;;4957334;29;20503;-53
2021/01/22 11:00:45;;;;;;;3.43;0.70;;;8.90;99.90;;;;;;4959845;29;20488;-50
2021/01/22 11:03:11;;;;;;;2.10;0.90;;;9.00;99.90;;;;;;4959285;29;20464;-53
2021/01/22 11:05:37;;;;;;;1.30;0.77;;;8.90;99.90;;;;;;4957290;29;20471;-55
2021/01/22 11:08:06;;;;;;;1.60;0.80;;;9.00;99.90;;;;;;4958944;29;20435;-53
2021/01/22 11:10:32;;;;;;;1.00;0.70;;;9.10;99.90;;;;;;4959564;29;20464;-53
2021/01/22 11:12:59;;;;;;;1.10;0.77;;;9.20;99.90;;;;;;4958652;29;20877;-53
2021/01/22 11:15:25;;;;;;;2.70;0.83;;;9.20;99.90;;;;;;4955218;29;20467;-53
2021/01/22 11:17:51;;;;;;;1.50;0.90;;;9.20;99.90;;;;;;4962018;29;20476;-52
2021/01/22 11:20:18;;;;;;;1.77;0.90;;;9.20;99.90;;;;;;4961755;29;20499;-52
2021/01/22 11:22:48;;;;;;;1.00;0.70;;;9.30;99.90;;;;;;4961280;29;20448;-52
2021/01/22 11:25:17;;;;;;;1.07;0.87;;;9.30;99.90;;;;;;4966118;29;20487;-55
2021/01/22 11:27:44;;;;;;;1.43;0.87;;;9.30;99.90;;;;;;4963526;29;20798;-53
2021/01/22 11:30:12;;;;;;;1.00;0.80;;;9.30;99.90;;;;;;4962174;29;20527;-55
2021/01/22 11:32:38;;;;;;;2.03;0.83;;;9.40;99.90;;;;;;4961033;29;20444;-55
2021/01/22 11:35:09;;;;;;;1.00;0.70;;;9.40;99.90;;;;;;4970492;29;20440;-55
2021/01/22 11:37:36;;;;;;;1.83;0.90;;;9.30;99.90;;;;;;4973787;29;20479;-50
2021/01/22 11:40:05;;;;;;;2.40;1.57;;;9.10;99.90;;;;;;4974525;29;20495;-55
2021/01/22 11:42:32;;;;;;;5.20;2.23;;;8.90;99.90;;;;;;4974990;29;20467;-55
2021/01/22 11:45:01;;;;;;;11.70;4.23;;;8.80;99.90;;;;;;4974176;29;20443;-53
2021/01/22 11:47:28;;;;;;;2.80;1.67;;;8.80;99.90;;;;;;4975086;29;20448;-53
2021/01/22 11:49:54;;;;;;;1.77;1.43;;;8.80;99.90;;;;;;4973799;28;20483;-55
2021/01/22 11:52:20;;;;;;;1.27;0.80;;;8.80;99.90;;;;;;4971316;29;20469;-53
2021/01/22 11:54:47;;;;;;;0.90;0.70;;;8.80;99.90;;;;;;4972627;29;20503;-55
2021/01/22 11:57:16;;;;;;;3.27;1.07;;;9.00;99.90;;;;;;4962734;29;20483;-54
2021/01/22 11:59:44;;;;;;;1.80;0.93;;;9.00;99.90;;;;;;4961871;29;20965;-53
2021/01/22 12:02:10;;;;;;;1.20;0.70;;;9.00;99.90;;;;;;4961565;29;20440;-49
2021/01/22 12:04:36;;;;;;;1.17;0.80;;;9.00;99.90;;;;;;4957542;29;20462;-52
2021/01/22 12:07:03;;;;;;;1.00;0.70;;;9.00;99.90;;;;;;4957411;29;20459;-53
2021/01/22 12:09:29;;;;;;;1.87;0.80;;;9.00;99.90;;;;;;4958561;29;20523;-56
2021/01/22 12:11:56;;;;;;;5.70;1.03;;;9.00;99.90;;;;;;4964960;28;20467;-55
2021/01/22 12:14:22;;;;;;;2.00;1.23;;;8.90;99.90;;;;;;4951656;29;20552;-54
2021/01/22 12:16:49;;;;;;;1.50;0.97;;;8.90;99.90;;;;;;4957671;29;20483;-53
2021/01/22 12:19:16;;;;;;;1.30;0.83;;;8.90;99.90;;;;;;4958758;29;20452;-53
2021/01/22 12:21:43;;;;;;;1.33;0.70;;;8.80;99.90;;;;;;4958077;29;20459;-55
2021/01/22 12:24:10;;;;;;;1.90;1.10;;;8.90;99.90;;;;;;4958014;29;20459;-55
2021/01/22 12:26:36;;;;;;;1.00;0.70;;;8.90;99.90;;;;;;4957120;29;20459;-54
2021/01/22 12:29:03;;;;;;;1.30;0.83;;;9.00;99.90;;;;;;4959141;29;20512;-55
2021/01/22 12:31:30;;;;;;;1.30;0.87;;;9.00;99.90;;;;;;4958092;29;20454;-52
2021/01/22 12:33:57;;;;;;;1.97;1.10;;;9.00;99.90;;;;;;4958347;29;20484;-52
2021/01/22 12:36:24;;;;;;;1.97;1.23;;;9.00;99.90;;;;;;4957257;29;20479;-51
2021/01/22 12:38:51;;;;;;;3.10;1.00;;;9.10;99.90;;;;;;4957681;29;20456;-50
2021/01/22 12:41:18;;;;;;;1.83;1.00;;;9.10;99.90;;;;;;4957612;29;20510;-52
2021/01/22 12:43:44;;;;;;;1.47;0.90;;;9.10;99.90;;;;;;4957297;29;20467;-52
2021/01/22 12:46:12;;;;;;;2.20;1.00;;;9.10;99.90;;;;;;4956894;29;20479;-53
2021/01/22 12:48:39;;;;;;;1.00;0.70;;;9.00;99.90;;;;;;4958158;29;20452;-51
2021/01/22 12:51:07;;;;;;;1.00;0.60;;;8.80;99.90;;;;;;4972753;29;20459;-52
2021/01/22 12:53:34;;;;;;;2.23;1.00;;;8.70;99.90;;;;;;4973399;29;20452;-47
2021/01/22 12:56:00;;;;;;;1.00;0.70;;;8.70;99.90;;;;;;4963180;29;20480;-52
2021/01/22 12:58:27;;;;;;;1.87;1.10;;;8.60;99.90;;;;;;4963463;29;20463;-52
2021/01/22 13:00:54;;;;;;;2.30;1.27;;;8.50;99.90;;;;;;4964665;28;20930;-51
2021/01/22 13:03:21;;;;;;;1.30;0.80;;;8.40;99.90;;;;;;4967413;29;20447;-50
2021/01/22 13:05:48;;;;;;;1.30;0.93;;;8.40;99.90;;;;;;4960883;29;20455;-54
2021/01/22 13:08:15;;;;;;;1.60;0.83;;;8.40;99.90;;;;;;4964229;29;20499;-51
2021/01/22 13:10:42;;;;;;;1.50;0.80;;;8.30;99.90;;;;;;4962507;29;20456;-51
2021/01/22 13:13:09;;;;;;;3.27;1.10;;;8.30;99.90;;;;;;4962260;29;20530;-48
2021/01/22 13:15:36;;;;;;;1.90;1.13;;;8.30;99.90;;;;;;4960687;29;20444;-54
2021/01/22 13:18:03;;;;;;;5.00;1.53;;;8.30;99.90;;;;;;4961752;29;20487;-49
2021/01/22 13:20:31;;;;;;;1.87;1.10;;;8.30;99.90;;;;;;4961729;29;20462;-53
2021/01/22 13:22:58;;;;;;;8.20;1.40;;;8.30;99.90;;;;;;4958767;29;20470;-52
2021/01/22 13:25:26;;;;;;;1.37;0.83;;;8.30;99.90;;;;;;4960526;29;20540;-50
2021/01/22 13:27:52;;;;;;;1.20;0.97;;;8.30;99.90;;;;;;4964132;28;20450;-53
2021/01/22 13:30:20;;;;;;;1.77;0.90;;;8.40;99.90;;;;;;4966533;29;20465;-53
2021/01/22 13:32:47;;;;;;;2.23;1.20;;;8.30;99.90;;;;;;4965928;29;20513;-54
2021/01/22 13:35:14;;;;;;;1.90;1.10;;;8.40;99.90;;;;;;4965462;28;20949;-53
2021/01/22 13:37:43;;;;;;;5.70;1.00;;;8.40;99.90;;;;;;4965116;29;20503;-54
2021/01/22 13:40:15;;;;;;;1.00;0.70;;;8.40;99.90;;;;;;4964929;29;20464;-52
2021/01/22 13:42:43;;;;;;;2.23;1.13;;;8.40;99.90;;;;;;4965686;29;20494;-55
2021/01/22 13:45:11;;;;;;;1.20;0.90;;;8.40;99.90;;;;;;4967831;29;20427;-54
2021/01/22 13:47:37;;;;;;;2.13;0.97;;;8.40;99.90;;;;;;4977519;29;20466;-55
2021/01/22 13:50:06;;;;;;;4.73;2.27;;;8.50;99.90;;;;;;4975515;29;20448;-51
2021/01/22 13:52:32;;;;;;;5.43;1.93;;;8.50;99.90;;;;;;4975877;29;20452;-52
2021/01/22 13:55:02;;;;;;;2.13;1.37;;;8.60;99.90;;;;;;4976547;29;20503;-47
2021/01/22 13:57:29;;;;;;;3.87;1.33;;;8.60;99.90;;;;;;4977442;29;20495;-49
2021/01/22 13:59:56;;;;;;;2.37;1.10;;;8.70;99.90;;;;;;4978248;28;20516;-46
2021/01/22 14:02:23;;;;;;;1.37;0.93;;;8.70;99.90;;;;;;4977985;29;20431;-48
2021/01/22 14:04:49;;;;;;;1.47;0.80;;;8.70;99.90;;;;;;4977582;29;20454;-50
2021/01/22 14:07:16;;;;;;;1.43;1.10;;;8.80;99.90;;;;;;4976402;29;20454;-46
2021/01/22 14:09:43;;;;;;;1.67;1.10;;;8.80;99.90;;;;;;4976310;29;20444;-50
2021/01/22 14:12:10;;;;;;;1.60;1.13;;;8.80;99.90;;;;;;4975346;28;20482;-51
2021/01/22 14:14:36;;;;;;;6.17;2.83;;;8.80;99.90;;;;;;4975023;29;20454;-52
2021/01/22 14:17:04;;;;;;;8.67;1.40;;;8.80;99.90;;;;;;4974302;29;20487;-52
2021/01/22 14:19:30;;;;;;;2.50;0.90;;;8.90;99.90;;;;;;4975025;29;20458;-47
2021/01/22 14:21:57;;;;;;;3.50;1.07;;;8.90;99.90;;;;;;4974726;29;20459;-49
2021/01/22 14:24:23;;;;;;;1.47;1.10;;;8.80;99.90;;;;;;4974776;29;20896;-52
2021/01/22 14:26:50;;;;;;;2.40;1.23;;;8.90;99.90;;;;;;4974477;29;20444;-49
2021/01/22 14:29:16;;;;;;;1.87;1.27;;;8.90;99.90;;;;;;4975761;29;20444;-50
2021/01/22 14:31:42;;;;;;;3.50;1.20;;;8.90;99.90;;;;;;4975819;29;20451;-51
2021/01/22 14:34:10;;;;;;;4.50;1.70;;;8.90;99.90;;;;;;4974777;29;20483;-51
2021/01/22 14:36:36;;;;;;;4.80;2.13;;;9.00;99.90;;;;;;4975977;29;20483;-51
2021/01/22 14:39:04;;;;;;;3.10;1.90;;;9.00;99.90;;;;;;4977976;29;20448;-51
2021/01/22 14:41:30;;;;;;;3.47;2.10;;;8.90;99.90;;;;;;4975905;29;20451;-54
2021/01/22 14:43:59;;;;;;;2.23;1.30;;;8.90;99.90;;;;;;4974771;29;20459;-51
2021/01/22 14:46:26;;;;;;;4.90;1.70;;;9.00;99.90;;;;;;4975162;29;20450;-53
2021/01/22 14:48:52;;;;;;;2.17;1.50;;;8.90;99.90;;;;;;4976730;29;20958;-55
2021/01/22 14:51:22;;;;;;;2.03;0.97;;;8.90;99.90;;;;;;4976090;29;20462;-54
2021/01/22 14:53:51;;;;;;;1.23;0.90;;;9.00;99.90;;;;;;4977037;29;20451;-54
2021/01/22 14:56:18;;;;;;;3.47;1.13;;;9.00;99.90;;;;;;4975325;29;20463;-55
2021/01/22 14:58:44;;;;;;;1.30;1.00;;;8.90;99.90;;;;;;4977062;29;20459;-52
2021/01/22 15:01:11;;;;;;;1.70;1.10;;;8.90;99.90;;;;;;4975292;29;20440;-52
2021/01/22 15:03:37;;;;;;;2.80;1.17;;;8.90;99.90;;;;;;4976422;29;20448;-51
2021/01/22 15:06:04;;;;;;;1.77;1.37;;;8.90;99.90;;;;;;4974192;29;20455;-50
2021/01/22 15:08:33;;;;;;;2.07;1.07;;;8.90;99.90;;;;;;4974409;29;20488;-51
2021/01/22 15:11:00;;;;;;;6.13;1.27;;;8.90;99.90;;;;;;4974551;29;20447;-53
2021/01/22 15:13:26;;;;;;;1.50;0.90;;;8.80;99.90;;;;;;4975620;29;20456;-51
2021/01/22 15:15:56;;;;;;;1.63;1.07;;;8.90;99.90;;;;;;4975755;29;20491;-46
2021/01/22 15:18:22;;;;;;;1.90;1.10;;;8.90;99.90;;;;;;4975132;29;20484;-47
2021/01/22 15:20:49;;;;;;;2.30;1.50;;;8.80;99.90;;;;;;4975011;29;20448;-54
2021/01/22 15:23:15;;;;;;;1.27;0.87;;;8.80;99.90;;;;;;4975867;28;20456;-54
2021/01/22 15:25:43;;;;;;;2.27;1.20;;;8.80;99.90;;;;;;4973761;29;20468;-49
2021/01/22 15:28:09;;;;;;;1.80;1.40;;;8.80;99.90;;;;;;4974936;29;20494;-49
2021/01/22 15:30:36;;;;;;;1.87;1.10;;;8.80;99.90;;;;;;4975872;29;20428;-52
2021/01/22 15:33:02;;;;;;;2.30;1.27;;;8.70;99.90;;;;;;4974452;29;20895;-51
2021/01/22 15:35:29;;;;;;;2.10;1.13;;;8.70;99.90;;;;;;4974936;29;20452;-53
2021/01/22 15:37:55;;;;;;;1.70;0.90;;;8.80;99.90;;;;;;4975597;29;20511;-53
2021/01/22 15:40:22;;;;;;;1.90;1.20;;;8.80;99.90;;;;;;4976681;29;20436;-52
2021/01/22 15:42:49;;;;;;;2.77;1.40;;;8.80;99.90;;;;;;4976654;29;20448;-55
2021/01/22 15:45:16;;;;;;;2.77;1.40;;;8.80;99.90;;;;;;4976503;29;20458;-54
2021/01/22 15:47:42;;;;;;;2.33;1.23;;;8.80;99.90;;;;;;4974989;29;20444;-54
2021/01/22 15:50:09;;;;;;;2.33;1.70;;;8.80;99.90;;;;;;4975326;29;20416;-52
2021/01/22 15:52:36;;;;;;;4.60;1.77;;;8.70;99.90;;;;;;4973538;29;20484;-51
2021/01/22 15:55:04;;;;;;;2.00;1.73;;;8.60;99.90;;;;;;4974947;29;20511;-51
2021/01/22 15:57:30;;;;;;;2.00;1.03;;;8.50;99.90;;;;;;4975787;29;20487;-51
2021/01/22 15:59:58;;;;;;;2.80;1.00;;;8.50;99.90;;;;;;4974435;29;20443;-49
2021/01/22 16:02:24;;;;;;;1.57;1.00;;;8.50;99.90;;;;;;4976331;29;20464;-51
2021/01/22 16:04:51;;;;;;;2.87;1.17;;;8.40;99.90;;;;;;4974578;29;20455;-48
2021/01/22 16:07:17;;;;;;;1.97;1.00;;;8.40;99.90;;;;;;4975215;29;20452;-52
2021/01/22 16:09:44;;;;;;;1.50;1.10;;;8.40;99.90;;;;;;4975040;29;20483;-52
2021/01/22 16:12:10;;;;;;;1.80;1.00;;;8.40;99.90;;;;;;4974863;29;20439;-55
2021/01/22 16:14:37;;;;;;;2.33;1.20;;;8.40;99.90;;;;;;4974455;29;20448;-54
2021/01/22 16:17:04;;;;;;;1.83;0.93;;;8.30;99.90;;;;;;4975465;29;20483;-53
2021/01/22 16:19:30;;;;;;;2.80;1.20;;;8.30;99.90;;;;;;4975539;29;20447;-50
2021/01/22 16:21:57;;;;;;;2.13;0.80;;;8.20;99.90;;;;;;4975326;29;20448;-46